createdAt,value
2023-06-19T00:02:14.438Z,101060.59
2023-06-19T00:04:41.643Z,101074.19
2023-06-19T00:07:08.670Z,101096.25
2023-06-19T00:09:35.836Z,101091.53
2023-06-19T00:12:03.420Z,101079.97
2023-06-19T00:14:30.582Z,101033.69
2023-06-19T00:16:57.715Z,101074.50
2023-06-19T00:19:24.968Z,101051.91
2023-06-19T00:21:52.090Z,101051.91
2023-06-19T00:24:19.241Z,101059.34
2023-06-19T00:26:46.523Z,101082.59
2023-06-19T00:29:13.678Z,101074.28
2023-06-19T00:31:40.873Z,101030.84
2023-06-19T00:34:09.364Z,101051.50
2023-06-19T00:36:41.966Z,101026.69
2023-06-19T00:39:09.784Z,101076.34
2023-06-19T00:41:37.466Z,101074.53
2023-06-19T00:44:05.263Z,101072.81
2023-06-19T00:46:33.000Z,101059.41
2023-06-19T00:49:00.419Z,101078.00
2023-06-19T00:51:27.613Z,101076.97
2023-06-19T00:53:54.934Z,101008.03
2023-06-19T00:56:22.187Z,100976.19
2023-06-19T00:58:53.035Z,101073.22
2023-06-19T01:01:22.266Z,101031.56
2023-06-19T01:03:49.592Z,101077.59
2023-06-19T01:06:29.298Z,101076.34
2023-06-19T01:09:07.034Z,101081.31
2023-06-19T01:11:45.822Z,101057.78
2023-06-19T01:14:22.613Z,101070.31
2023-06-19T01:16:50.398Z,101020.34
2023-06-19T01:19:21.581Z,101075.25
2023-06-19T01:21:50.740Z,100956.31
2023-06-19T01:24:17.848Z,101033.44
2023-06-19T01:26:48.605Z,101046.81
2023-06-19T01:29:19.215Z,101083.13
2023-06-19T01:32:16.638Z,101093.41
2023-06-19T01:34:44.221Z,101076.22
2023-06-19T01:37:11.981Z,101059.16
2023-06-19T01:39:40.306Z,101073.78
2023-06-19T01:42:10.596Z,101094.00
2023-06-19T01:44:38.011Z,101096.84
2023-06-19T01:47:12.907Z,101092.41
2023-06-19T01:49:42.417Z,101088.25
2023-06-19T01:52:10.055Z,101054.47
2023-06-19T01:54:37.165Z,101090.09
2023-06-19T01:57:04.585Z,101085.38
2023-06-19T01:59:31.798Z,101069.66
2023-06-19T02:01:59.031Z,101092.16
2023-06-19T02:04:26.208Z,101097.41
2023-06-19T02:06:53.328Z,100974.72
2023-06-19T02:09:22.391Z,101061.81
2023-06-19T02:11:49.440Z,101058.22
2023-06-19T02:14:16.869Z,101089.28
2023-06-19T02:16:44.833Z,101046.63
2023-06-19T02:19:12.400Z,100985.19
2023-06-19T02:21:40.324Z,101087.41
2023-06-19T02:24:07.582Z,101100.28
2023-06-19T02:26:34.786Z,101121.81
2023-06-19T02:29:01.933Z,101107.41
2023-06-19T02:31:29.187Z,101114.50
2023-06-19T02:33:56.431Z,101115.06
2023-06-19T02:36:23.646Z,101117.44
2023-06-19T02:38:50.867Z,101093.59
2023-06-19T02:41:19.752Z,101098.78
2023-06-19T02:43:50.860Z,101105.88
2023-06-19T02:46:18.098Z,101006.19
2023-06-19T02:48:45.322Z,101100.97
2023-06-19T02:51:12.584Z,101121.09
2023-06-19T02:53:39.813Z,101094.41
2023-06-19T02:56:08.887Z,101058.78
2023-06-19T02:58:35.993Z,101077.38
2023-06-19T03:01:03.241Z,101107.97
2023-06-19T03:03:30.995Z,101126.09
2023-06-19T03:05:58.205Z,101128.41
2023-06-19T03:08:25.391Z,101115.88
2023-06-19T03:10:52.595Z,101132.88
2023-06-19T03:13:20.712Z,101116.09
2023-06-19T03:15:47.765Z,101127.06
2023-06-19T03:18:15.191Z,101004.91
2023-06-19T03:20:42.392Z,101104.31
2023-06-19T03:23:09.593Z,101127.63
2023-06-19T03:25:37.250Z,101118.22
2023-06-19T03:28:05.769Z,101123.72
2023-06-19T03:30:33.956Z,101131.59
2023-06-19T03:33:01.156Z,101113.25
2023-06-19T03:35:43.432Z,101132.88
2023-06-19T03:38:18.901Z,101127.88
2023-06-19T03:40:46.193Z,101129.16
2023-06-19T03:43:13.896Z,101122.63
2023-06-19T03:45:42.187Z,101107.69
2023-06-19T03:48:09.320Z,101129.16
2023-06-19T03:50:36.788Z,101047.56
2023-06-19T03:53:04.592Z,101059.03
2023-06-19T03:55:31.799Z,101118.94
2023-06-19T03:57:59.026Z,101089.59
2023-06-19T04:00:26.532Z,101120.22
2023-06-19T04:02:54.135Z,101120.72
2023-06-19T04:05:21.618Z,101098.50
2023-06-19T04:07:49.778Z,101022.34
2023-06-19T04:10:17.245Z,101118.34
2023-06-19T04:12:46.493Z,101121.75
2023-06-19T04:15:13.786Z,101122.03
2023-06-19T04:17:41.201Z,101126.50
2023-06-19T04:20:13.368Z,101126.00
2023-06-19T04:22:41.791Z,101100.31
2023-06-19T04:25:10.062Z,101103.97
2023-06-19T04:27:37.214Z,101084.38
2023-06-19T04:30:05.733Z,101131.53
2023-06-19T04:32:33.241Z,101117.69
2023-06-19T04:35:00.660Z,101133.41
2023-06-19T04:37:27.930Z,101109.34
2023-06-19T04:39:55.327Z,101090.72
2023-06-19T04:42:22.586Z,101126.59
2023-06-19T04:44:50.200Z,101127.88
2023-06-19T04:47:26.766Z,101089.41
2023-06-19T04:49:58.198Z,101104.56
2023-06-19T04:52:25.285Z,101130.19
2023-06-19T04:54:52.434Z,101131.47
2023-06-19T04:57:19.608Z,101144.34
2023-06-19T04:59:46.860Z,101139.34
2023-06-19T05:02:14.073Z,101127.81
2023-06-19T05:04:44.284Z,101131.69
2023-06-19T05:07:14.011Z,101097.16
2023-06-19T05:09:41.084Z,101082.53
2023-06-19T05:12:08.567Z,101106.34
2023-06-19T05:14:35.609Z,101140.28
2023-06-19T05:17:02.760Z,101069.06
2023-06-19T05:19:29.937Z,101076.84
2023-06-19T05:21:57.174Z,101139.38
2023-06-19T05:24:25.209Z,101140.88
2023-06-19T05:26:52.408Z,101146.09
2023-06-19T05:29:19.537Z,101148.91
2023-06-19T05:31:46.582Z,101095.16
2023-06-19T05:34:13.698Z,101139.56
2023-06-19T05:36:40.818Z,101164.09
2023-06-19T05:39:08.086Z,101166.69
2023-06-19T05:41:35.326Z,101156.41
2023-06-19T05:44:02.916Z,101097.72
2023-06-19T05:46:30.024Z,101061.19
2023-06-19T05:48:57.311Z,101162.72
2023-06-19T05:51:24.433Z,101150.66
2023-06-19T05:53:53.354Z,101176.53
2023-06-19T05:56:20.603Z,101156.25
2023-06-19T05:58:47.679Z,101165.03
2023-06-19T06:01:15.139Z,101151.91
2023-06-19T06:03:42.230Z,101161.28
2023-06-19T06:06:09.471Z,101154.56
2023-06-19T06:08:37.159Z,101129.97
2023-06-19T06:11:04.422Z,101182.47
2023-06-19T06:13:31.549Z,101178.25
2023-06-19T06:15:58.688Z,101177.59
2023-06-19T06:18:25.870Z,101166.97
2023-06-19T06:20:53.052Z,101169.47
2023-06-19T06:23:20.138Z,101165.47
2023-06-19T06:25:47.297Z,101159.44
2023-06-19T06:28:14.435Z,101121.47
2023-06-19T06:30:41.709Z,101089.28
2023-06-19T06:33:09.001Z,101150.44
2023-06-19T06:35:37.104Z,101168.59
2023-06-19T06:38:04.167Z,101163.84
2023-06-19T06:40:31.343Z,101174.44
2023-06-19T06:42:58.588Z,101173.34
2023-06-19T06:45:27.928Z,101182.75
2023-06-19T06:47:55.518Z,101176.84
2023-06-19T06:50:22.955Z,101129.72
2023-06-19T06:52:50.384Z,101151.06
2023-06-19T06:55:17.598Z,101155.91
2023-06-19T06:57:44.655Z,101158.50
2023-06-19T07:00:12.669Z,101187.69
2023-06-19T07:02:41.482Z,101168.34
2023-06-19T07:05:10.191Z,101176.84
2023-06-19T07:07:37.667Z,101152.97
2023-06-19T07:10:05.290Z,101161.22
2023-06-19T07:12:32.440Z,101126.38
2023-06-19T07:14:59.574Z,101184.50
2023-06-19T07:17:26.837Z,101163.59
2023-06-19T07:19:53.978Z,101186.09
2023-06-19T07:22:21.110Z,101174.00
2023-06-19T07:24:48.383Z,101150.88
2023-06-19T07:27:15.464Z,101179.75
2023-06-19T07:29:42.577Z,101032.03
2023-06-19T07:32:09.791Z,101167.75
2023-06-19T07:34:37.064Z,101140.38
2023-06-19T07:37:04.527Z,101151.06
2023-06-19T07:39:32.461Z,101140.66
2023-06-19T07:41:59.660Z,101153.44
2023-06-19T07:44:26.752Z,101121.09
2023-06-19T07:46:53.841Z,101159.22
2023-06-19T07:49:20.933Z,101142.44
2023-06-19T07:51:48.124Z,101172.34
2023-06-19T07:54:15.276Z,101146.56
2023-06-19T07:56:42.714Z,101187.06
2023-06-19T07:59:09.888Z,101154.09
2023-06-19T08:01:37.082Z,101158.84
2023-06-19T08:04:04.354Z,101153.59
2023-06-19T08:06:31.462Z,101173.97
2023-06-19T08:08:58.622Z,101189.38
2023-06-19T08:11:25.717Z,101216.00
2023-06-19T08:13:53.138Z,101181.47
2023-06-19T08:16:20.543Z,101180.97
2023-06-19T08:18:47.878Z,101168.59
2023-06-19T08:21:15.213Z,101181.94
2023-06-19T08:23:44.988Z,101113.88
2023-06-19T08:26:12.432Z,101187.44
2023-06-19T08:28:41.519Z,101186.50
2023-06-19T08:31:09.213Z,101186.56
2023-06-19T08:33:39.184Z,101158.16
2023-06-19T08:36:06.631Z,101190.19
2023-06-19T08:38:33.839Z,101163.16
2023-06-19T08:41:01.093Z,101170.25
2023-06-19T08:43:28.735Z,101181.97
2023-06-19T08:46:11.211Z,101058.00
2023-06-19T08:48:39.043Z,101182.94
2023-06-19T08:51:06.894Z,101175.16
2023-06-19T08:53:36.223Z,101175.94
2023-06-19T08:56:05.588Z,101177.88
2023-06-19T08:58:32.840Z,101167.41
2023-06-19T09:01:00.581Z,101174.44
2023-06-19T09:03:27.850Z,101150.69
2023-06-19T09:05:55.291Z,101162.34
2023-06-19T09:08:24.054Z,101101.81
2023-06-19T09:10:57.840Z,101174.88
2023-06-19T09:13:25.047Z,101176.03
2023-06-19T09:16:03.821Z,101161.63
2023-06-19T09:18:33.009Z,101176.44
2023-06-19T09:21:00.409Z,101170.97
2023-06-19T09:23:27.623Z,101141.34
2023-06-19T09:25:59.461Z,101171.38
2023-06-19T09:28:29.465Z,101152.66
2023-06-19T09:31:04.076Z,101160.66
2023-06-19T09:33:33.566Z,101155.59
2023-06-19T09:36:03.164Z,101159.09
2023-06-19T09:38:32.951Z,101133.97
2023-06-19T09:41:03.613Z,101159.28
2023-06-19T09:43:51.235Z,101157.34
2023-06-19T09:46:20.885Z,101129.31
2023-06-19T09:48:52.360Z,101115.28
2023-06-19T09:51:22.462Z,101127.53
2023-06-19T09:53:54.038Z,101149.53
2023-06-19T09:56:25.621Z,101138.06
2023-06-19T09:58:57.385Z,101144.47
2023-06-19T10:01:25.614Z,101146.03
2023-06-19T10:04:04.599Z,101133.88
2023-06-19T10:06:33.135Z,101144.00
2023-06-19T10:09:11.290Z,101134.41
2023-06-19T10:11:54.192Z,101133.81
2023-06-19T10:14:22.325Z,101141.00
2023-06-19T10:16:50.365Z,101120.03
2023-06-19T10:19:19.282Z,101141.19
2023-06-19T10:21:51.385Z,101122.53
2023-06-19T10:24:21.293Z,101132.22
2023-06-19T10:27:02.833Z,101136.28
2023-06-19T10:29:41.525Z,101134.72
2023-06-19T10:32:11.393Z,101127.59
2023-06-19T10:34:38.589Z,101137.53
2023-06-19T10:37:06.194Z,101131.81
2023-06-19T10:39:33.676Z,101114.84
2023-06-19T10:42:00.825Z,101113.50
2023-06-19T10:44:27.881Z,101090.28
2023-06-19T10:46:55.053Z,101111.41
2023-06-19T10:49:22.407Z,101124.91
2023-06-19T10:51:50.015Z,101116.91
2023-06-19T10:54:17.372Z,101093.41
2023-06-19T10:56:44.728Z,101113.84
2023-06-19T10:59:15.202Z,101115.22
2023-06-19T11:01:45.831Z,101114.34
2023-06-19T11:04:16.130Z,101108.72
2023-06-19T11:06:46.555Z,101088.63
2023-06-19T11:09:14.622Z,101117.53
2023-06-19T11:11:49.528Z,101096.97
2023-06-19T11:14:18.209Z,101117.06
2023-06-19T11:16:49.411Z,101117.72
2023-06-19T11:19:21.691Z,101099.59
2023-06-19T11:21:52.088Z,101096.84
2023-06-19T11:24:21.592Z,101095.97
2023-06-19T11:26:51.271Z,101100.16
2023-06-19T11:29:23.820Z,101105.31
2023-06-19T11:31:51.767Z,101069.63
2023-06-19T11:34:23.384Z,101046.69
2023-06-19T11:36:52.219Z,101101.06
2023-06-19T11:39:20.616Z,101091.06
2023-06-19T11:41:48.417Z,101109.06
2023-06-19T11:44:16.238Z,101095.69
2023-06-19T11:46:44.067Z,101091.94
2023-06-19T11:49:19.175Z,101073.78
2023-06-19T11:51:48.100Z,101077.28
2023-06-19T11:54:16.356Z,101088.56
2023-06-19T11:56:43.547Z,101055.25
2023-06-19T11:59:10.884Z,101062.25
2023-06-19T12:01:38.599Z,101061.28
2023-06-19T12:04:06.285Z,101084.09
2023-06-19T12:06:34.010Z,101077.56
2023-06-19T12:09:01.162Z,101059.03
2023-06-19T12:11:28.436Z,101059.50
2023-06-19T12:13:57.118Z,101073.97
2023-06-19T12:16:24.356Z,101053.78
2023-06-19T12:18:51.497Z,101049.31
2023-06-19T12:21:34.178Z,101065.03
2023-06-19T12:24:05.615Z,101057.28
2023-06-19T12:26:37.667Z,101062.97
2023-06-19T12:29:05.829Z,101054.72
2023-06-19T12:31:33.626Z,101059.16
2023-06-19T12:34:08.133Z,101053.34
2023-06-19T12:36:38.118Z,101056.59
2023-06-19T12:39:10.471Z,101038.41
2023-06-19T12:41:37.992Z,101038.13
2023-06-19T12:44:05.202Z,101025.38
2023-06-19T12:46:33.673Z,101032.63
2023-06-19T12:49:01.243Z,101047.97
2023-06-19T12:51:28.377Z,101020.59
2023-06-19T12:53:55.623Z,101042.19
2023-06-19T12:56:22.955Z,101038.16
2023-06-19T12:58:50.209Z,101054.44
2023-06-19T13:01:17.829Z,101024.34
2023-06-19T13:03:45.237Z,101033.59
2023-06-19T13:06:12.624Z,100941.41
2023-06-19T13:08:39.932Z,101015.81
2023-06-19T13:11:07.049Z,101031.63
2023-06-19T13:13:34.280Z,101030.88
2023-06-19T13:16:01.579Z,101009.41
2023-06-19T13:18:28.944Z,101007.50
2023-06-19T13:20:56.467Z,100986.66
2023-06-19T13:23:23.873Z,101022.50
2023-06-19T13:25:51.292Z,101011.97
2023-06-19T13:28:18.743Z,101012.31
2023-06-19T13:30:45.937Z,101015.94
2023-06-19T13:33:13.321Z,100984.06
2023-06-19T13:35:40.420Z,100986.66
2023-06-19T13:38:07.654Z,101006.28
2023-06-19T13:40:34.965Z,100971.19
2023-06-19T13:43:03.819Z,101007.22
2023-06-19T13:45:31.990Z,101010.88
2023-06-19T13:47:59.409Z,100987.00
2023-06-19T13:50:26.754Z,100994.91
2023-06-19T13:52:55.770Z,101004.38
2023-06-19T13:55:24.208Z,101002.03
2023-06-19T13:57:51.418Z,101005.91
2023-06-19T14:00:19.650Z,100992.53
2023-06-19T14:02:46.991Z,100991.06
2023-06-19T14:05:17.009Z,100967.31
2023-06-19T14:07:45.163Z,100948.50
2023-06-19T14:10:12.329Z,101002.81
2023-06-19T14:12:39.569Z,100969.09
2023-06-19T14:15:08.591Z,100997.28
2023-06-19T14:17:35.855Z,100981.06
2023-06-19T14:20:05.623Z,100987.63
2023-06-19T14:22:33.043Z,100993.84
2023-06-19T14:25:03.046Z,100982.44
2023-06-19T14:27:31.175Z,100935.25
2023-06-19T14:29:58.569Z,100988.97
2023-06-19T14:32:25.840Z,100973.88
2023-06-19T14:34:53.267Z,100977.00
2023-06-19T14:37:20.545Z,100940.94
2023-06-19T14:39:48.025Z,100974.53
2023-06-19T14:42:15.258Z,100971.59
2023-06-19T14:44:42.411Z,100945.94
2023-06-19T14:47:09.512Z,100980.31
2023-06-19T14:49:36.652Z,100976.81
2023-06-19T14:52:04.052Z,100946.53
2023-06-19T14:54:31.174Z,100981.09
2023-06-19T14:56:58.362Z,100957.63
2023-06-19T14:59:25.927Z,100961.41
2023-06-19T15:01:53.058Z,100938.50
2023-06-19T15:04:20.457Z,100880.09
2023-06-19T15:06:47.660Z,100972.38
2023-06-19T15:09:14.972Z,100957.19
2023-06-19T15:11:42.102Z,100964.69
2023-06-19T15:14:09.672Z,100963.16
2023-06-19T15:16:38.060Z,100966.72
2023-06-19T15:19:05.737Z,100941.81
2023-06-19T15:21:32.993Z,100950.31
2023-06-19T15:24:00.227Z,100972.06
2023-06-19T15:26:27.509Z,100966.38
2023-06-19T15:28:54.933Z,100965.41
2023-06-19T15:31:23.969Z,100959.22
2023-06-19T15:33:51.766Z,100968.34
2023-06-19T15:36:19.203Z,100949.47
2023-06-19T15:38:46.743Z,100882.63
2023-06-19T15:41:14.377Z,100924.91
2023-06-19T15:44:08.478Z,100925.75
2023-06-19T15:46:36.632Z,100956.78
2023-06-19T15:49:05.677Z,100863.25
2023-06-19T15:51:33.940Z,100788.38
2023-06-19T15:54:02.807Z,101001.38
2023-06-19T15:56:31.185Z,100963.09
2023-06-19T15:59:02.931Z,100954.63
2023-06-19T16:01:36.254Z,100958.94
2023-06-19T16:04:09.913Z,100859.41
2023-06-19T16:06:38.575Z,100967.69
2023-06-19T16:09:08.238Z,100863.19
2023-06-19T16:11:40.160Z,100870.97
2023-06-19T16:14:12.712Z,100959.72
2023-06-19T16:16:43.459Z,100954.56
2023-06-19T16:19:10.817Z,100964.75
2023-06-19T16:21:39.395Z,100868.81
2023-06-19T16:24:07.603Z,100798.31
2023-06-19T16:26:35.700Z,100779.63
2023-06-19T16:29:04.522Z,100796.06
2023-06-19T16:31:42.066Z,100977.31
2023-06-19T16:34:10.072Z,100969.13
2023-06-19T16:36:38.337Z,100941.91
2023-06-19T16:39:07.296Z,100889.97
2023-06-19T16:41:35.020Z,100930.84
2023-06-19T16:44:03.610Z,100970.97
2023-06-19T16:46:33.739Z,100797.94
2023-06-19T16:49:14.523Z,100876.91
2023-06-19T16:51:50.805Z,100941.22
2023-06-19T16:54:20.154Z,100927.06
2023-06-19T16:56:47.979Z,100871.22
2023-06-19T16:59:18.680Z,100859.28
2023-06-19T17:01:51.712Z,100979.25
2023-06-19T17:04:19.744Z,100977.44
2023-06-19T17:06:47.818Z,100974.66
2023-06-19T17:09:15.280Z,100958.16
2023-06-19T17:11:43.043Z,100977.19
2023-06-19T17:14:10.256Z,100975.66
2023-06-19T17:16:37.474Z,100984.88
2023-06-19T17:19:06.744Z,100969.75
2023-06-19T17:21:33.887Z,100984.09
2023-06-19T17:24:01.204Z,100955.72
2023-06-19T17:26:28.510Z,100984.09
2023-06-19T17:28:55.675Z,100937.75
2023-06-19T17:31:22.883Z,100980.69
2023-06-19T17:33:50.098Z,100986.91
2023-06-19T17:36:17.148Z,100991.63
2023-06-19T17:38:44.412Z,100988.16
2023-06-19T17:41:11.887Z,100963.91
2023-06-19T17:43:39.064Z,100959.22
2023-06-19T17:46:06.230Z,100958.31
2023-06-19T17:48:33.359Z,100971.56
2023-06-19T17:51:00.469Z,100985.97
2023-06-19T17:53:27.609Z,100962.28
2023-06-19T17:55:54.764Z,100992.25
2023-06-19T17:58:22.938Z,100978.34
2023-06-19T18:00:50.145Z,100953.88
2023-06-19T18:03:17.354Z,100992.97
2023-06-19T18:05:44.530Z,100998.09
2023-06-19T18:08:11.733Z,100953.59
2023-06-19T18:10:39.084Z,101001.84
2023-06-19T18:13:06.312Z,101012.94
2023-06-19T18:15:33.477Z,100999.53
2023-06-19T18:18:00.670Z,101008.91
2023-06-19T18:20:28.220Z,101008.16
2023-06-19T18:22:55.688Z,101012.44
2023-06-19T18:25:22.943Z,100998.06
2023-06-19T18:27:50.168Z,101005.88
2023-06-19T18:30:17.459Z,101021.63
2023-06-19T18:32:44.626Z,101025.56
2023-06-19T18:35:12.003Z,100958.03
2023-06-19T18:37:39.527Z,101019.50
2023-06-19T18:40:07.402Z,100995.78
2023-06-19T18:42:35.219Z,101040.34
2023-06-19T18:45:02.394Z,101042.06
2023-06-19T18:47:29.441Z,101028.66
2023-06-19T18:49:56.609Z,101018.56
2023-06-19T18:52:24.201Z,101025.34
2023-06-19T18:54:51.321Z,101034.47
2023-06-19T18:57:18.512Z,101047.72
2023-06-19T18:59:45.648Z,101046.34
2023-06-19T19:02:12.893Z,100973.34
2023-06-19T19:04:43.065Z,101066.00
2023-06-19T19:07:10.199Z,101046.50
2023-06-19T19:09:37.407Z,101066.34
2023-06-19T19:12:05.337Z,101038.88
2023-06-19T19:14:32.503Z,101063.84
2023-06-19T19:16:59.683Z,101056.03
2023-06-19T19:19:28.516Z,101063.44
2023-06-19T19:21:55.902Z,101070.25
2023-06-19T19:24:24.113Z,101090.69
2023-06-19T19:26:51.558Z,101047.81
2023-06-19T19:29:18.900Z,101074.84
2023-06-19T19:31:46.165Z,101078.13
2023-06-19T19:34:20.134Z,101050.25
2023-06-19T19:36:48.432Z,101077.63
2023-06-19T19:39:15.769Z,101063.88
2023-06-19T19:41:45.256Z,101070.38
2023-06-19T19:44:12.589Z,101063.00
2023-06-19T19:46:41.105Z,101095.09
2023-06-19T19:49:08.566Z,101092.13
2023-06-19T19:51:36.212Z,101062.47
2023-06-19T19:54:03.472Z,101055.72
2023-06-19T19:56:30.653Z,101095.13
2023-06-19T19:58:57.761Z,101078.81
2023-06-19T20:01:24.841Z,101072.09
2023-06-19T20:03:52.103Z,101073.81
2023-06-19T20:06:19.296Z,101059.19
2023-06-19T20:08:46.509Z,101090.09
2023-06-19T20:11:13.762Z,101095.50
2023-06-19T20:13:40.958Z,101093.97
2023-06-19T20:16:11.553Z,101072.59
2023-06-19T20:18:39.755Z,101073.38
2023-06-19T20:21:07.242Z,101042.97
2023-06-19T20:23:34.391Z,101092.84
2023-06-19T20:26:01.822Z,101076.13
2023-06-19T20:28:28.874Z,101083.06
2023-06-19T20:30:56.037Z,101084.03
2023-06-19T20:33:23.434Z,101072.97
2023-06-19T20:35:51.302Z,101051.72
2023-06-19T20:38:21.320Z,101083.16
2023-06-19T20:40:49.203Z,101094.22
2023-06-19T20:43:16.702Z,101071.09
2023-06-19T20:45:43.758Z,101103.03
2023-06-19T20:48:11.084Z,101079.81
2023-06-19T20:50:38.293Z,101099.41
2023-06-19T20:53:05.372Z,101103.88
2023-06-19T20:55:32.486Z,101090.31
2023-06-19T20:58:05.785Z,101101.97
2023-06-19T21:00:33.750Z,101113.56
2023-06-19T21:03:04.226Z,101097.31
2023-06-19T21:05:31.727Z,101119.03
2023-06-19T21:07:58.969Z,101092.13
2023-06-19T21:10:26.309Z,101115.63
2023-06-19T21:12:53.671Z,101095.09
2023-06-19T21:15:20.754Z,101111.63
2023-06-19T21:17:47.985Z,101126.78
2023-06-19T21:20:15.133Z,101077.22
2023-06-19T21:22:42.358Z,101094.03
2023-06-19T21:25:09.921Z,101097.06
2023-06-19T21:27:37.135Z,101065.47
2023-06-19T21:30:05.533Z,101094.13
2023-06-19T21:32:32.759Z,101125.38
2023-06-19T21:34:59.935Z,101129.25
2023-06-19T21:37:26.990Z,101111.66
2023-06-19T21:39:54.150Z,101139.78
2023-06-19T21:42:21.330Z,101144.56
2023-06-19T21:44:48.564Z,101078.94
2023-06-19T21:47:15.644Z,101135.97
2023-06-19T21:49:42.817Z,101138.41
2023-06-19T21:52:10.074Z,101136.75
2023-06-19T21:54:37.144Z,101137.00
2023-06-19T21:57:04.369Z,101099.06
2023-06-19T21:59:31.464Z,101114.91
2023-06-19T22:01:58.575Z,101122.50
2023-06-19T22:04:25.798Z,101104.41
2023-06-19T22:06:52.891Z,101145.94
2023-06-19T22:09:20.091Z,101098.59
2023-06-19T22:11:47.236Z,101124.56
2023-06-19T22:14:14.409Z,101069.34
2023-06-19T22:16:41.634Z,101119.34
2023-06-19T22:19:11.720Z,101125.16
2023-06-19T22:21:42.747Z,101126.47
2023-06-19T22:24:13.194Z,101104.19
2023-06-19T22:26:40.404Z,101136.78
2023-06-19T22:29:07.657Z,101147.75
2023-06-19T22:31:34.937Z,101137.00
2023-06-19T22:34:02.220Z,101145.97
2023-06-19T22:36:29.446Z,101142.53
2023-06-19T22:38:56.647Z,101125.47
2023-06-19T22:41:24.039Z,101136.88
2023-06-19T22:43:51.159Z,101147.41
2023-06-19T22:46:18.445Z,101157.00
2023-06-19T22:48:51.636Z,101151.63
2023-06-19T22:51:18.936Z,101137.75
2023-06-19T22:53:46.019Z,101145.69
2023-06-19T22:56:13.464Z,101143.59
2023-06-19T22:58:43.957Z,101125.38
2023-06-19T23:01:11.588Z,101079.69
2023-06-19T23:03:43.813Z,101146.25
2023-06-19T23:06:11.755Z,101135.13
2023-06-19T23:08:41.610Z,101143.16
2023-06-19T23:11:09.574Z,101113.44
2023-06-19T23:13:39.310Z,101123.28
2023-06-19T23:16:09.382Z,101134.41
2023-06-19T23:18:37.508Z,101094.00
2023-06-19T23:21:04.726Z,101162.22
2023-06-19T23:23:32.481Z,101153.28
2023-06-19T23:26:01.620Z,101167.25
2023-06-19T23:28:32.630Z,101137.34
2023-06-19T23:31:00.503Z,101162.22
2023-06-19T23:33:27.924Z,101160.91
2023-06-19T23:35:57.707Z,101151.53
2023-06-19T23:38:25.904Z,101163.06
2023-06-19T23:40:55.223Z,101038.25
2023-06-19T23:43:22.340Z,101153.19
2023-06-19T23:45:52.266Z,101109.75
2023-06-19T23:48:19.656Z,101116.78
2023-06-19T23:50:46.816Z,101107.41
2023-06-19T23:53:14.024Z,101075.63
2023-06-19T23:55:41.196Z,101133.56
2023-06-19T23:58:09.485Z,101029.22
